sensor_id;sensor_type;location;lat;lon;timestamp;P1;durP1;ratioP1;P2;durP2;ratioP2
10934;SDS011;5520;45.752;4.874;2023-09-19T00:01:44;6.60;;;2.90;;
10934;SDS011;5520;45.752;4.874;2023-09-19T00:04:14;5.03;;;2.47;;
10934;SDS011;5520;45.752;4.874;2023-09-19T00:06:42;5.00;;;2.80;;
10934;SDS011;5520;45.752;4.874;2023-09-19T00:09:10;2.23;;;2.03;;
10934;SDS011;5520;45.752;4.874;2023-09-19T00:11:38;5.80;;;2.53;;
10934;SDS011;5520;45.752;4.874;2023-09-19T00:14:08;2.93;;;2.20;;
10934;SDS011;5520;45.752;4.874;2023-09-19T00:16:36;4.33;;;2.37;;
10934;SDS011;5520;45.752;4.874;2023-09-19T00:19:04;3.50;;;2.27;;
10934;SDS011;5520;45.752;4.874;2023-09-19T00:21:37;5.47;;;2.87;;
10934;SDS011;5520;45.752;4.874;2023-09-19T00:24:05;2.87;;;2.03;;
10934;SDS011;5520;45.752;4.874;2023-09-19T00:26:33;2.50;;;2.30;;
10934;SDS011;5520;45.752;4.874;2023-09-19T00:29:01;4.97;;;2.17;;
10934;SDS011;5520;45.752;4.874;2023-09-19T00:31:35;5.00;;;2.10;;
10934;SDS011;5520;45.752;4.874;2023-09-19T00:34:04;3.73;;;2.00;;
10934;SDS011;5520;45.752;4.874;2023-09-19T00:36:33;6.63;;;2.47;;
10934;SDS011;5520;45.752;4.874;2023-09-19T00:39:02;4.53;;;1.60;;
10934;SDS011;5520;45.752;4.874;2023-09-19T00:41:31;4.10;;;2.07;;
10934;SDS011;5520;45.752;4.874;2023-09-19T00:44:02;4.37;;;2.10;;
10934;SDS011;5520;45.752;4.874;2023-09-19T00:46:31;3.97;;;2.07;;
10934;SDS011;5520;45.752;4.874;2023-09-19T00:48:59;3.33;;;1.90;;
10934;SDS011;5520;45.752;4.874;2023-09-19T00:51:27;3.73;;;2.20;;
10934;SDS011;5520;45.752;4.874;2023-09-19T00:53:56;2.40;;;1.80;;
10934;SDS011;5520;45.752;4.874;2023-09-19T00:56:27;2.20;;;1.97;;
10934;SDS011;5520;45.752;4.874;2023-09-19T00:58:55;7.50;;;2.50;;
10934;SDS011;5520;45.752;4.874;2023-09-19T01:01:24;3.97;;;1.90;;
10934;SDS011;5520;45.752;4.874;2023-09-19T01:03:53;4.93;;;2.50;;
10934;SDS011;5520;45.752;4.874;2023-09-19T01:06:21;4.13;;;2.30;;
10934;SDS011;5520;45.752;4.874;2023-09-19T01:08:49;6.77;;;2.23;;
10934;SDS011;5520;45.752;4.874;2023-09-19T01:11:19;4.10;;;2.20;;
10934;SDS011;5520;45.752;4.874;2023-09-19T01:13:51;7.77;;;2.43;;
10934;SDS011;5520;45.752;4.874;2023-09-19T01:16:28;3.20;;;2.00;;
10934;SDS011;5520;45.752;4.874;2023-09-19T01:18:59;4.67;;;2.17;;
10934;SDS011;5520;45.752;4.874;2023-09-19T01:21:32;3.57;;;2.80;;
10934;SDS011;5520;45.752;4.874;2023-09-19T01:24:18;2.60;;;2.40;;
10934;SDS011;5520;45.752;4.874;2023-09-19T01:27:04;3.67;;;2.50;;
10934;SDS011;5520;45.752;4.874;2023-09-19T01:29:38;6.73;;;2.30;;
10934;SDS011;5520;45.752;4.874;2023-09-19T01:32:08;2.67;;;2.10;;
10934;SDS011;5520;45.752;4.874;2023-09-19T01:34:44;5.07;;;2.23;;
10934;SDS011;5520;45.752;4.874;2023-09-19T01:37:14;2.23;;;1.90;;
10934;SDS011;5520;45.752;4.874;2023-09-19T01:39:46;2.67;;;1.90;;
10934;SDS011;5520;45.752;4.874;2023-09-19T01:42:19;4.77;;;2.20;;
10934;SDS011;5520;45.752;4.874;2023-09-19T01:44:51;2.83;;;2.10;;
10934;SDS011;5520;45.752;4.874;2023-09-19T01:47:23;4.93;;;2.03;;
10934;SDS011;5520;45.752;4.874;2023-09-19T01:49:55;6.10;;;2.03;;
10934;SDS011;5520;45.752;4.874;2023-09-19T01:52:28;4.70;;;1.40;;
10934;SDS011;5520;45.752;4.874;2023-09-19T01:55:00;4.30;;;1.60;;
10934;SDS011;5520;45.752;4.874;2023-09-19T01:57:32;3.13;;;1.33;;
10934;SDS011;5520;45.752;4.874;2023-09-19T02:00:03;2.80;;;1.10;;
10934;SDS011;5520;45.752;4.874;2023-09-19T02:02:35;1.00;;;1.00;;
10934;SDS011;5520;45.752;4.874;2023-09-19T02:05:03;1.47;;;1.33;;
10934;SDS011;5520;45.752;4.874;2023-09-19T02:07:32;4.23;;;1.10;;
10934;SDS011;5520;45.752;4.874;2023-09-19T02:10:04;1.90;;;1.20;;
10934;SDS011;5520;45.752;4.874;2023-09-19T02:12:33;1.90;;;1.00;;
10934;SDS011;5520;45.752;4.874;2023-09-19T02:15:02;2.23;;;1.00;;
10934;SDS011;5520;45.752;4.874;2023-09-19T02:17:35;2.77;;;0.83;;
10934;SDS011;5520;45.752;4.874;2023-09-19T02:20:03;2.03;;;1.17;;
10934;SDS011;5520;45.752;4.874;2023-09-19T02:22:41;1.73;;;1.03;;
10934;SDS011;5520;45.752;4.874;2023-09-19T02:25:10;2.37;;;0.90;;
10934;SDS011;5520;45.752;4.874;2023-09-19T02:27:40;4.63;;;1.00;;
10934;SDS011;5520;45.752;4.874;2023-09-19T02:30:08;1.53;;;0.90;;
10934;SDS011;5520;45.752;4.874;2023-09-19T02:32:38;2.20;;;0.70;;
10934;SDS011;5520;45.752;4.874;2023-09-19T02:35:06;1.30;;;0.70;;
10934;SDS011;5520;45.752;4.874;2023-09-19T02:37:38;3.67;;;0.90;;
10934;SDS011;5520;45.752;4.874;2023-09-19T02:40:06;1.57;;;0.70;;
10934;SDS011;5520;45.752;4.874;2023-09-19T02:42:45;1.53;;;0.60;;
10934;SDS011;5520;45.752;4.874;2023-09-19T02:45:15;1.50;;;0.70;;
10934;SDS011;5520;45.752;4.874;2023-09-19T02:47:46;1.70;;;0.70;;
10934;SDS011;5520;45.752;4.874;2023-09-19T02:50:15;0.77;;;0.60;;
10934;SDS011;5520;45.752;4.874;2023-09-19T02:52:44;2.33;;;0.83;;
10934;SDS011;5520;45.752;4.874;2023-09-19T02:55:14;0.80;;;0.60;;
10934;SDS011;5520;45.752;4.874;2023-09-19T02:57:45;1.37;;;0.43;;
10934;SDS011;5520;45.752;4.874;2023-09-19T03:00:14;1.60;;;0.60;;
10934;SDS011;5520;45.752;4.874;2023-09-19T03:02:42;0.93;;;0.50;;
10934;SDS011;5520;45.752;4.874;2023-09-19T03:05:12;0.97;;;0.60;;
10934;SDS011;5520;45.752;4.874;2023-09-19T03:07:41;0.60;;;0.60;;
10934;SDS011;5520;45.752;4.874;2023-09-19T03:10:09;1.60;;;0.63;;
10934;SDS011;5520;45.752;4.874;2023-09-19T03:12:37;2.20;;;1.03;;
10934;SDS011;5520;45.752;4.874;2023-09-19T03:15:06;0.70;;;0.50;;
10934;SDS011;5520;45.752;4.874;2023-09-19T03:17:36;0.83;;;0.70;;
10934;SDS011;5520;45.752;4.874;2023-09-19T03:20:05;0.40;;;0.40;;
10934;SDS011;5520;45.752;4.874;2023-09-19T03:22:36;0.50;;;0.47;;
10934;SDS011;5520;45.752;4.874;2023-09-19T03:25:05;0.57;;;0.57;;
10934;SDS011;5520;45.752;4.874;2023-09-19T03:27:34;0.80;;;0.80;;
10934;SDS011;5520;45.752;4.874;2023-09-19T03:30:03;0.67;;;0.47;;
10934;SDS011;5520;45.752;4.874;2023-09-19T03:32:34;0.53;;;0.53;;
10934;SDS011;5520;45.752;4.874;2023-09-19T03:35:03;0.80;;;0.60;;
10934;SDS011;5520;45.752;4.874;2023-09-19T03:37:32;0.87;;;0.60;;
10934;SDS011;5520;45.752;4.874;2023-09-19T03:40:02;2.10;;;0.67;;
10934;SDS011;5520;45.752;4.874;2023-09-19T03:42:32;0.50;;;0.50;;
10934;SDS011;5520;45.752;4.874;2023-09-19T03:45:02;0.50;;;0.50;;
10934;SDS011;5520;45.752;4.874;2023-09-19T03:47:32;1.00;;;0.50;;
10934;SDS011;5520;45.752;4.874;2023-09-19T03:50:00;0.67;;;0.60;;
10934;SDS011;5520;45.752;4.874;2023-09-19T03:52:30;0.70;;;0.70;;
10934;SDS011;5520;45.752;4.874;2023-09-19T03:55:00;0.90;;;0.80;;
10934;SDS011;5520;45.752;4.874;2023-09-19T03:57:30;0.60;;;0.60;;
10934;SDS011;5520;45.752;4.874;2023-09-19T03:59:58;0.90;;;0.50;;
10934;SDS011;5520;45.752;4.874;2023-09-19T04:02:27;0.90;;;0.67;;
10934;SDS011;5520;45.752;4.874;2023-09-19T04:04:59;1.43;;;1.00;;
10934;SDS011;5520;45.752;4.874;2023-09-19T04:07:27;0.50;;;0.50;;
10934;SDS011;5520;45.752;4.874;2023-09-19T04:09:56;1.57;;;0.80;;
10934;SDS011;5520;45.752;4.874;2023-09-19T04:12:24;3.07;;;0.60;;
10934;SDS011;5520;45.752;4.874;2023-09-19T04:14:54;0.90;;;0.60;;
10934;SDS011;5520;45.752;4.874;2023-09-19T04:17:22;0.47;;;0.47;;
10934;SDS011;5520;45.752;4.874;2023-09-19T04:19:50;1.50;;;0.70;;
10934;SDS011;5520;45.752;4.874;2023-09-19T04:22:18;0.30;;;0.30;;
10934;SDS011;5520;45.752;4.874;2023-09-19T04:24:46;1.00;;;0.80;;
10934;SDS011;5520;45.752;4.874;2023-09-19T04:27:14;1.77;;;0.80;;
10934;SDS011;5520;45.752;4.874;2023-09-19T04:29:42;3.73;;;0.50;;
10934;SDS011;5520;45.752;4.874;2023-09-19T04:32:12;0.57;;;0.50;;
10934;SDS011;5520;45.752;4.874;2023-09-19T04:34:40;1.80;;;0.77;;
10934;SDS011;5520;45.752;4.874;2023-09-19T04:37:08;2.20;;;0.53;;
10934;SDS011;5520;45.752;4.874;2023-09-19T04:39:37;2.23;;;0.73;;
10934;SDS011;5520;45.752;4.874;2023-09-19T04:42:06;1.57;;;0.93;;
10934;SDS011;5520;45.752;4.874;2023-09-19T04:44:35;0.63;;;0.50;;
10934;SDS011;5520;45.752;4.874;2023-09-19T04:47:05;0.53;;;0.53;;
10934;SDS011;5520;45.752;4.874;2023-09-19T04:49:35;1.17;;;0.50;;
10934;SDS011;5520;45.752;4.874;2023-09-19T04:52:04;0.50;;;0.40;;
10934;SDS011;5520;45.752;4.874;2023-09-19T04:54:32;2.60;;;0.60;;
10934;SDS011;5520;45.752;4.874;2023-09-19T04:57:00;1.30;;;0.43;;
10934;SDS011;5520;45.752;4.874;2023-09-19T04:59:28;0.80;;;0.53;;
10934;SDS011;5520;45.752;4.874;2023-09-19T05:01:58;1.17;;;0.67;;
10934;SDS011;5520;45.752;4.874;2023-09-19T05:04:29;0.73;;;0.57;;
10934;SDS011;5520;45.752;4.874;2023-09-19T05:06:58;1.67;;;0.43;;
10934;SDS011;5520;45.752;4.874;2023-09-19T05:09:27;1.67;;;0.67;;
10934;SDS011;5520;45.752;4.874;2023-09-19T05:11:55;0.67;;;0.67;;
10934;SDS011;5520;45.752;4.874;2023-09-19T05:14:24;0.83;;;0.60;;
10934;SDS011;5520;45.752;4.874;2023-09-19T05:16:52;1.30;;;0.70;;
10934;SDS011;5520;45.752;4.874;2023-09-19T05:19:21;2.07;;;1.13;;
10934;SDS011;5520;45.752;4.874;2023-09-19T05:21:49;1.60;;;0.70;;
10934;SDS011;5520;45.752;4.874;2023-09-19T05:24:18;1.20;;;0.70;;
10934;SDS011;5520;45.752;4.874;2023-09-19T05:26:47;2.50;;;0.90;;
10934;SDS011;5520;45.752;4.874;2023-09-19T05:29:15;0.77;;;0.77;;
10934;SDS011;5520;45.752;4.874;2023-09-19T05:31:43;0.97;;;0.80;;
10934;SDS011;5520;45.752;4.874;2023-09-19T05:34:11;4.70;;;0.80;;
10934;SDS011;5520;45.752;4.874;2023-09-19T05:36:39;0.77;;;0.60;;
10934;SDS011;5520;45.752;4.874;2023-09-19T05:39:07;1.17;;;0.80;;
10934;SDS011;5520;45.752;4.874;2023-09-19T05:41:37;1.37;;;0.50;;
10934;SDS011;5520;45.752;4.874;2023-09-19T05:44:06;1.23;;;0.70;;
10934;SDS011;5520;45.752;4.874;2023-09-19T05:46:34;0.87;;;0.83;;
10934;SDS011;5520;45.752;4.874;2023-09-19T05:49:03;1.80;;;1.00;;
10934;SDS011;5520;45.752;4.874;2023-09-19T05:51:31;3.27;;;1.50;;
10934;SDS011;5520;45.752;4.874;2023-09-19T05:53:58;3.73;;;1.73;;
10934;SDS011;5520;45.752;4.874;2023-09-19T05:56:27;3.40;;;1.60;;
10934;SDS011;5520;45.752;4.874;2023-09-19T05:58:56;1.00;;;0.90;;
10934;SDS011;5520;45.752;4.874;2023-09-19T06:01:24;1.47;;;0.90;;
10934;SDS011;5520;45.752;4.874;2023-09-19T06:03:53;2.23;;;1.07;;
10934;SDS011;5520;45.752;4.874;2023-09-19T06:06:22;2.77;;;0.73;;
10934;SDS011;5520;45.752;4.874;2023-09-19T06:08:50;5.00;;;0.93;;
10934;SDS011;5520;45.752;4.874;2023-09-19T06:11:18;3.10;;;0.73;;
10934;SDS011;5520;45.752;4.874;2023-09-19T06:13:47;1.00;;;0.80;;
10934;SDS011;5520;45.752;4.874;2023-09-19T06:16:16;0.90;;;0.90;;
10934;SDS011;5520;45.752;4.874;2023-09-19T06:18:46;2.43;;;1.00;;
10934;SDS011;5520;45.752;4.874;2023-09-19T06:21:19;1.47;;;0.90;;
10934;SDS011;5520;45.752;4.874;2023-09-19T06:23:47;2.00;;;0.80;;
10934;SDS011;5520;45.752;4.874;2023-09-19T06:26:15;1.33;;;0.80;;
10934;SDS011;5520;45.752;4.874;2023-09-19T06:28:44;2.17;;;0.90;;
10934;SDS011;5520;45.752;4.874;2023-09-19T06:31:12;1.20;;;1.10;;
10934;SDS011;5520;45.752;4.874;2023-09-19T06:33:42;1.63;;;1.00;;
10934;SDS011;5520;45.752;4.874;2023-09-19T06:36:10;3.03;;;1.00;;
10934;SDS011;5520;45.752;4.874;2023-09-19T06:38:38;1.63;;;1.00;;
10934;SDS011;5520;45.752;4.874;2023-09-19T06:41:06;1.17;;;0.77;;
10934;SDS011;5520;45.752;4.874;2023-09-19T06:43:35;1.17;;;1.07;;
10934;SDS011;5520;45.752;4.874;2023-09-19T06:46:03;1.70;;;0.90;;
10934;SDS011;5520;45.752;4.874;2023-09-19T06:48:33;1.10;;;1.00;;
10934;SDS011;5520;45.752;4.874;2023-09-19T06:51:03;1.97;;;1.00;;
10934;SDS011;5520;45.752;4.874;2023-09-19T06:53:31;1.57;;;1.20;;
10934;SDS011;5520;45.752;4.874;2023-09-19T06:56:01;1.27;;;1.10;;
10934;SDS011;5520;45.752;4.874;2023-09-19T06:58:29;1.50;;;0.90;;
10934;SDS011;5520;45.752;4.874;2023-09-19T07:00:58;2.47;;;1.03;;
10934;SDS011;5520;45.752;4.874;2023-09-19T07:03:26;2.30;;;1.10;;
10934;SDS011;5520;45.752;4.874;2023-09-19T07:05:55;1.63;;;1.13;;
10934;SDS011;5520;45.752;4.874;2023-09-19T07:08:26;1.57;;;1.00;;
10934;SDS011;5520;45.752;4.874;2023-09-19T07:10:55;4.97;;;1.20;;
10934;SDS011;5520;45.752;4.874;2023-09-19T07:13:24;2.73;;;1.23;;
10934;SDS011;5520;45.752;4.874;2023-09-19T07:15:52;3.43;;;1.23;;
10934;SDS011;5520;45.752;4.874;2023-09-19T07:18:21;3.83;;;1.13;;
10934;SDS011;5520;45.752;4.874;2023-09-19T07:20:48;4.53;;;1.43;;
10934;SDS011;5520;45.752;4.874;2023-09-19T07:23:17;3.63;;;1.10;;
10934;SDS011;5520;45.752;4.874;2023-09-19T07:25:49;4.33;;;1.00;;
10934;SDS011;5520;45.752;4.874;2023-09-19T07:28:17;1.20;;;1.07;;
10934;SDS011;5520;45.752;4.874;2023-09-19T07:30:45;3.20;;;1.20;;
10934;SDS011;5520;45.752;4.874;2023-09-19T07:33:13;3.13;;;1.07;;
10934;SDS011;5520;45.752;4.874;2023-09-19T07:35:44;2.03;;;1.17;;
10934;SDS011;5520;45.752;4.874;2023-09-19T07:38:12;4.00;;;1.23;;
10934;SDS011;5520;45.752;4.874;2023-09-19T07:40:41;2.13;;;0.80;;
10934;SDS011;5520;45.752;4.874;2023-09-19T07:43:10;2.83;;;1.00;;
10934;SDS011;5520;45.752;4.874;2023-09-19T07:45:38;2.33;;;1.23;;
10934;SDS011;5520;45.752;4.874;2023-09-19T07:48:06;1.70;;;1.20;;
10934;SDS011;5520;45.752;4.874;2023-09-19T07:50:41;1.53;;;1.10;;
10934;SDS011;5520;45.752;4.874;2023-09-19T07:53:10;3.10;;;0.93;;
10934;SDS011;5520;45.752;4.874;2023-09-19T07:55:40;1.33;;;0.83;;
10934;SDS011;5520;45.752;4.874;2023-09-19T07:58:10;2.43;;;0.93;;
10934;SDS011;5520;45.752;4.874;2023-09-19T08:00:39;1.73;;;1.03;;
10934;SDS011;5520;45.752;4.874;2023-09-19T08:03:07;3.33;;;1.40;;
10934;SDS011;5520;45.752;4.874;2023-09-19T08:05:43;2.87;;;1.30;;
10934;SDS011;5520;45.752;4.874;2023-09-19T08:08:12;3.77;;;1.10;;
10934;SDS011;5520;45.752;4.874;2023-09-19T08:10:42;1.93;;;1.20;;
10934;SDS011;5520;45.752;4.874;2023-09-19T08:13:14;2.93;;;1.70;;
10934;SDS011;5520;45.752;4.874;2023-09-19T08:15:44;2.37;;;1.17;;
10934;SDS011;5520;45.752;4.874;2023-09-19T08:18:13;2.00;;;0.90;;
10934;SDS011;5520;45.752;4.874;2023-09-19T08:20:41;1.80;;;1.10;;
10934;SDS011;5520;45.752;4.874;2023-09-19T08:23:12;5.43;;;1.23;;
10934;SDS011;5520;45.752;4.874;2023-09-19T08:25:40;1.67;;;1.00;;
10934;SDS011;5520;45.752;4.874;2023-09-19T08:28:09;3.60;;;1.07;;
10934;SDS011;5520;45.752;4.874;2023-09-19T08:30:40;3.13;;;0.80;;
10934;SDS011;5520;45.752;4.874;2023-09-19T08:33:08;7.20;;;1.20;;
10934;SDS011;5520;45.752;4.874;2023-09-19T08:35:37;2.03;;;1.30;;
10934;SDS011;5520;45.752;4.874;2023-09-19T08:38:06;4.57;;;1.00;;
10934;SDS011;5520;45.752;4.874;2023-09-19T08:40:36;1.93;;;1.40;;
10934;SDS011;5520;45.752;4.874;2023-09-19T08:43:06;2.00;;;1.13;;
10934;SDS011;5520;45.752;4.874;2023-09-19T08:45:34;0.97;;;0.90;;
10934;SDS011;5520;45.752;4.874;2023-09-19T08:48:08;3.33;;;0.93;;
10934;SDS011;5520;45.752;4.874;2023-09-19T08:50:39;3.17;;;1.23;;
10934;SDS011;5520;45.752;4.874;2023-09-19T08:53:10;1.83;;;1.03;;
10934;SDS011;5520;45.752;4.874;2023-09-19T08:55:39;2.50;;;1.10;;
10934;SDS011;5520;45.752;4.874;2023-09-19T08:58:10;1.63;;;1.13;;
10934;SDS011;5520;45.752;4.874;2023-09-19T09:00:39;2.60;;;1.37;;
10934;SDS011;5520;45.752;4.874;2023-09-19T09:03:10;4.87;;;1.30;;
10934;SDS011;5520;45.752;4.874;2023-09-19T09:05:39;1.77;;;0.97;;
10934;SDS011;5520;45.752;4.874;2023-09-19T09:08:10;2.33;;;0.80;;
10934;SDS011;5520;45.752;4.874;2023-09-19T09:10:38;4.00;;;1.20;;
10934;SDS011;5520;45.752;4.874;2023-09-19T09:13:07;1.50;;;1.20;;
10934;SDS011;5520;45.752;4.874;2023-09-19T09:15:35;3.23;;;1.27;;
10934;SDS011;5520;45.752;4.874;2023-09-19T09:18:04;1.10;;;1.00;;
10934;SDS011;5520;45.752;4.874;2023-09-19T09:20:33;2.83;;;0.93;;
10934;SDS011;5520;45.752;4.874;2023-09-19T09:23:02;3.33;;;1.27;;
10934;SDS011;5520;45.752;4.874;2023-09-19T09:25:47;2.37;;;1.13;;
10934;SDS011;5520;45.752;4.874;2023-09-19T09:28:19;1.87;;;1.03;;
10934;SDS011;5520;45.752;4.874;2023-09-19T09:30:47;0.97;;;0.93;;
10934;SDS011;5520;45.752;4.874;2023-09-19T09:33:15;3.83;;;0.90;;
10934;SDS011;5520;45.752;4.874;2023-09-19T09:35:49;1.57;;;1.03;;
10934;SDS011;5520;45.752;4.874;2023-09-19T09:38:20;1.17;;;0.90;;
10934;SDS011;5520;45.752;4.874;2023-09-19T09:40:48;4.77;;;1.40;;
10934;SDS011;5520;45.752;4.874;2023-09-19T09:43:27;1.03;;;0.77;;
10934;SDS011;5520;45.752;4.874;2023-09-19T09:46:08;2.27;;;1.20;;
10934;SDS011;5520;45.752;4.874;2023-09-19T09:48:59;1.40;;;1.10;;
10934;SDS011;5520;45.752;4.874;2023-09-19T09:51:44;3.30;;;0.97;;
10934;SDS011;5520;45.752;4.874;2023-09-19T09:54:25;2.57;;;1.10;;
10934;SDS011;5520;45.752;4.874;2023-09-19T09:56:54;1.63;;;1.07;;
10934;SDS011;5520;45.752;4.874;2023-09-19T09:59:44;2.93;;;1.10;;
10934;SDS011;5520;45.752;4.874;2023-09-19T10:02:14;2.53;;;1.33;;
10934;SDS011;5520;45.752;4.874;2023-09-19T10:04:47;1.67;;;1.50;;
10934;SDS011;5520;45.752;4.874;2023-09-19T10:07:28;4.77;;;1.20;;
10934;SDS011;5520;45.752;4.874;2023-09-19T10:09:59;1.33;;;1.20;;
10934;SDS011;5520;45.752;4.874;2023-09-19T10:12:43;2.53;;;1.20;;
10934;SDS011;5520;45.752;4.874;2023-09-19T10:15:15;3.57;;;1.20;;
10934;SDS011;5520;45.752;4.874;2023-09-19T10:17:47;1.87;;;1.27;;
10934;SDS011;5520;45.752;4.874;2023-09-19T10:20:16;1.77;;;1.07;;
10934;SDS011;5520;45.752;4.874;2023-09-19T10:23:04;1.90;;;1.27;;
10934;SDS011;5520;45.752;4.874;2023-09-19T10:25:36;2.57;;;1.20;;
10934;SDS011;5520;45.752;4.874;2023-09-19T10:28:08;3.13;;;1.27;;
10934;SDS011;5520;45.752;4.874;2023-09-19T10:30:41;3.17;;;1.23;;
10934;SDS011;5520;45.752;4.874;2023-09-19T10:33:12;2.07;;;1.40;;
10934;SDS011;5520;45.752;4.874;2023-09-19T10:35:42;1.30;;;1.00;;
10934;SDS011;5520;45.752;4.874;2023-09-19T10:38:12;3.43;;;0.93;;
10934;SDS011;5520;45.752;4.874;2023-09-19T10:40:44;1.47;;;0.93;;
10934;SDS011;5520;45.752;4.874;2023-09-19T10:43:17;0.90;;;0.87;;
10934;SDS011;5520;45.752;4.874;2023-09-19T10:45:46;1.90;;;1.00;;
10934;SDS011;5520;45.752;4.874;2023-09-19T10:48:16;3.10;;;1.23;;
10934;SDS011;5520;45.752;4.874;2023-09-19T10:50:48;2.67;;;1.23;;
10934;SDS011;5520;45.752;4.874;2023-09-19T10:53:19;1.50;;;1.17;;
10934;SDS011;5520;45.752;4.874;2023-09-19T10:55:49;1.13;;;1.00;;
10934;SDS011;5520;45.752;4.874;2023-09-19T10:58:25;3.07;;;1.57;;
10934;SDS011;5520;45.752;4.874;2023-09-19T11:00:56;0.73;;;0.73;;
10934;SDS011;5520;45.752;4.874;2023-09-19T11:03:28;1.27;;;1.00;;
10934;SDS011;5520;45.752;4.874;2023-09-19T11:06:08;1.13;;;0.80;;
10934;SDS011;5520;45.752;4.874;2023-09-19T11:08:59;2.27;;;1.30;;
10934;SDS011;5520;45.752;4.874;2023-09-19T11:11:50;1.30;;;0.90;;
10934;SDS011;5520;45.752;4.874;2023-09-19T11:14:29;1.27;;;1.10;;
10934;SDS011;5520;45.752;4.874;2023-09-19T11:28:34;2.20;;;1.03;;
10934;SDS011;5520;45.752;4.874;2023-09-19T11:34:02;3.27;;;1.30;;
10934;SDS011;5520;45.752;4.874;2023-09-19T11:36:51;4.23;;;1.20;;
10934;SDS011;5520;45.752;4.874;2023-09-19T11:39:24;2.60;;;1.43;;
10934;SDS011;5520;45.752;4.874;2023-09-19T11:41:53;2.33;;;1.20;;
10934;SDS011;5520;45.752;4.874;2023-09-19T11:44:33;4.17;;;1.00;;
10934;SDS011;5520;45.752;4.874;2023-09-19T11:47:05;3.50;;;1.10;;
10934;SDS011;5520;45.752;4.874;2023-09-19T11:49:33;3.00;;;1.20;;
10934;SDS011;5520;45.752;4.874;2023-09-19T11:52:04;2.90;;;1.10;;
10934;SDS011;5520;45.752;4.874;2023-09-19T11:54:35;1.70;;;1.20;;
10934;SDS011;5520;45.752;4.874;2023-09-19T11:57:06;1.93;;;1.30;;
10934;SDS011;5520;45.752;4.874;2023-09-19T11:59:38;2.23;;;1.43;;
10934;SDS011;5520;45.752;4.874;2023-09-19T12:02:07;1.20;;;1.10;;
10934;SDS011;5520;45.752;4.874;2023-09-19T12:04:38;3.00;;;1.10;;
10934;SDS011;5520;45.752;4.874;2023-09-19T12:07:10;1.30;;;1.20;;
10934;SDS011;5520;45.752;4.874;2023-09-19T12:09:43;2.13;;;1.20;;
10934;SDS011;5520;45.752;4.874;2023-09-19T12:12:19;1.50;;;0.90;;
10934;SDS011;5520;45.752;4.874;2023-09-19T12:14:48;3.47;;;1.10;;
10934;SDS011;5520;45.752;4.874;2023-09-19T12:17:17;1.23;;;1.10;;
10934;SDS011;5520;45.752;4.874;2023-09-19T12:19:49;1.53;;;0.87;;
10934;SDS011;5520;45.752;4.874;2023-09-19T12:22:18;1.23;;;1.10;;
10934;SDS011;5520;45.752;4.874;2023-09-19T12:24:47;2.20;;;0.90;;
10934;SDS011;5520;45.752;4.874;2023-09-19T12:27:17;1.83;;;1.10;;
10934;SDS011;5520;45.752;4.874;2023-09-19T12:29:45;1.10;;;0.90;;
10934;SDS011;5520;45.752;4.874;2023-09-19T12:32:16;5.13;;;1.10;;
10934;SDS011;5520;45.752;4.874;2023-09-19T12:34:52;1.00;;;0.90;;
10934;SDS011;5520;45.752;4.874;2023-09-19T12:37:21;1.10;;;0.87;;
10934;SDS011;5520;45.752;4.874;2023-09-19T12:40:00;2.70;;;1.00;;
10934;SDS011;5520;45.752;4.874;2023-09-19T12:42:41;1.30;;;1.10;;
10934;SDS011;5520;45.752;4.874;2023-09-19T12:45:11;0.80;;;0.80;;
10934;SDS011;5520;45.752;4.874;2023-09-19T12:47:41;0.90;;;0.80;;
10934;SDS011;5520;45.752;4.874;2023-09-19T12:50:29;1.63;;;1.07;;
10934;SDS011;5520;45.752;4.874;2023-09-19T12:52:59;0.83;;;0.83;;
10934;SDS011;5520;45.752;4.874;2023-09-19T12:55:28;1.30;;;0.70;;
10934;SDS011;5520;45.752;4.874;2023-09-19T12:58:00;2.63;;;0.90;;
10934;SDS011;5520;45.752;4.874;2023-09-19T13:00:32;2.00;;;1.17;;
10934;SDS011;5520;45.752;4.874;2023-09-19T13:03:13;1.80;;;0.93;;
10934;SDS011;5520;45.752;4.874;2023-09-19T13:05:49;1.03;;;0.87;;
10934;SDS011;5520;45.752;4.874;2023-09-19T13:08:19;1.07;;;0.90;;
10934;SDS011;5520;45.752;4.874;2023-09-19T13:11:04;1.67;;;0.97;;
10934;SDS011;5520;45.752;4.874;2023-09-19T13:13:37;2.17;;;0.90;;
10934;SDS011;5520;45.752;4.874;2023-09-19T13:16:06;1.30;;;0.80;;
10934;SDS011;5520;45.752;4.874;2023-09-19T13:18:43;1.33;;;0.93;;
10934;SDS011;5520;45.752;4.874;2023-09-19T13:21:12;0.83;;;0.83;;
10934;SDS011;5520;45.752;4.874;2023-09-19T13:23:49;2.27;;;1.20;;
10934;SDS011;5520;45.752;4.874;2023-09-19T13:26:18;1.47;;;1.00;;
10934;SDS011;5520;45.752;4.874;2023-09-19T13:28:46;1.40;;;0.93;;
10934;SDS011;5520;45.752;4.874;2023-09-19T13:31:16;1.53;;;1.03;;
10934;SDS011;5520;45.752;4.874;2023-09-19T13:33:46;1.70;;;0.90;;
10934;SDS011;5520;45.752;4.874;2023-09-19T13:36:14;0.93;;;0.83;;
10934;SDS011;5520;45.752;4.874;2023-09-19T13:38:45;1.23;;;1.13;;
10934;SDS011;5520;45.752;4.874;2023-09-19T13:41:15;2.30;;;0.77;;
10934;SDS011;5520;45.752;4.874;2023-09-19T13:43:46;1.70;;;0.97;;
10934;SDS011;5520;45.752;4.874;2023-09-19T13:46:15;1.77;;;1.00;;
10934;SDS011;5520;45.752;4.874;2023-09-19T13:48:46;3.43;;;1.00;;
10934;SDS011;5520;45.752;4.874;2023-09-19T13:51:14;4.10;;;0.90;;
10934;SDS011;5520;45.752;4.874;2023-09-19T13:53:42;1.33;;;1.00;;
10934;SDS011;5520;45.752;4.874;2023-09-19T13:56:10;2.00;;;1.07;;
10934;SDS011;5520;45.752;4.874;2023-09-19T13:58:38;4.83;;;1.03;;
10934;SDS011;5520;45.752;4.874;2023-09-19T14:01:09;3.50;;;1.17;;
10934;SDS011;5520;45.752;4.874;2023-09-19T14:03:39;1.07;;;0.80;;
10934;SDS011;5520;45.752;4.874;2023-09-19T14:06:09;2.30;;;1.07;;
10934;SDS011;5520;45.752;4.874;2023-09-19T14:08:38;1.10;;;0.77;;
10934;SDS011;5520;45.752;4.874;2023-09-19T14:11:06;1.97;;;0.80;;
10934;SDS011;5520;45.752;4.874;2023-09-19T14:13:34;1.10;;;0.90;;
10934;SDS011;5520;45.752;4.874;2023-09-19T14:16:03;1.40;;;0.87;;
10934;SDS011;5520;45.752;4.874;2023-09-19T14:18:32;1.87;;;1.17;;
10934;SDS011;5520;45.752;4.874;2023-09-19T14:21:02;0.80;;;0.80;;
10934;SDS011;5520;45.752;4.874;2023-09-19T14:23:35;1.30;;;0.87;;
10934;SDS011;5520;45.752;4.874;2023-09-19T14:26:03;2.07;;;0.97;;
10934;SDS011;5520;45.752;4.874;2023-09-19T14:28:32;2.03;;;1.00;;
10934;SDS011;5520;45.752;4.874;2023-09-19T14:31:05;1.17;;;0.77;;
10934;SDS011;5520;45.752;4.874;2023-09-19T14:33:33;0.87;;;0.70;;
10934;SDS011;5520;45.752;4.874;2023-09-19T14:36:05;1.53;;;0.80;;
10934;SDS011;5520;45.752;4.874;2023-09-19T14:38:37;0.93;;;0.77;;
10934;SDS011;5520;45.752;4.874;2023-09-19T14:41:06;1.40;;;0.90;;
10934;SDS011;5520;45.752;4.874;2023-09-19T14:43:34;1.27;;;0.70;;
10934;SDS011;5520;45.752;4.874;2023-09-19T14:46:02;2.03;;;1.33;;
10934;SDS011;5520;45.752;4.874;2023-09-19T14:48:30;2.40;;;0.80;;
10934;SDS011;5520;45.752;4.874;2023-09-19T14:51:01;1.97;;;1.20;;
10934;SDS011;5520;45.752;4.874;2023-09-19T14:53:30;2.33;;;1.00;;
10934;SDS011;5520;45.752;4.874;2023-09-19T14:56:01;0.80;;;0.80;;
10934;SDS011;5520;45.752;4.874;2023-09-19T14:58:30;1.03;;;0.97;;
10934;SDS011;5520;45.752;4.874;2023-09-19T15:01:02;1.83;;;1.13;;
10934;SDS011;5520;45.752;4.874;2023-09-19T15:03:31;1.00;;;0.90;;
10934;SDS011;5520;45.752;4.874;2023-09-19T15:06:00;1.23;;;1.13;;
10934;SDS011;5520;45.752;4.874;2023-09-19T15:08:28;1.20;;;0.80;;
10934;SDS011;5520;45.752;4.874;2023-09-19T15:10:56;1.50;;;0.93;;
10934;SDS011;5520;45.752;4.874;2023-09-19T15:13:26;2.10;;;1.10;;
10934;SDS011;5520;45.752;4.874;2023-09-19T15:15:58;1.73;;;1.20;;
10934;SDS011;5520;45.752;4.874;2023-09-19T15:18:26;2.43;;;1.10;;
10934;SDS011;5520;45.752;4.874;2023-09-19T15:20:55;3.23;;;1.00;;
10934;SDS011;5520;45.752;4.874;2023-09-19T15:23:23;2.40;;;1.00;;
10934;SDS011;5520;45.752;4.874;2023-09-19T15:25:58;4.43;;;1.07;;
10934;SDS011;5520;45.752;4.874;2023-09-19T15:28:27;1.03;;;0.93;;
10934;SDS011;5520;45.752;4.874;2023-09-19T15:30:59;2.57;;;1.30;;
10934;SDS011;5520;45.752;4.874;2023-09-19T15:33:29;1.40;;;0.83;;
10934;SDS011;5520;45.752;4.874;2023-09-19T15:36:00;3.23;;;1.20;;